sensor_id;sensor_type;location;lat;lon;timestamp;temperature;humidity
12421;DHT22;6275;43.688;1.408;2024-02-26T00:02:18;7.40;99.90
12421;DHT22;6275;43.688;1.408;2024-02-26T00:04:46;7.40;99.90
12421;DHT22;6275;43.688;1.408;2024-02-26T00:07:13;7.40;99.90
12421;DHT22;6275;43.688;1.408;2024-02-26T00:09:40;7.40;99.90
12421;DHT22;6275;43.688;1.408;2024-02-26T00:12:07;7.40;99.90
12421;DHT22;6275;43.688;1.408;2024-02-26T00:14:35;7.40;99.90
12421;DHT22;6275;43.688;1.408;2024-02-26T00:17:02;7.50;99.90
12421;DHT22;6275;43.688;1.408;2024-02-26T00:19:29;7.50;99.90
12421;DHT22;6275;43.688;1.408;2024-02-26T00:21:56;7.50;99.90
12421;DHT22;6275;43.688;1.408;2024-02-26T00:24:23;7.50;99.90
12421;DHT22;6275;43.688;1.408;2024-02-26T00:26:50;7.50;99.90
12421;DHT22;6275;43.688;1.408;2024-02-26T00:29:21;7.50;99.90
12421;DHT22;6275;43.688;1.408;2024-02-26T00:31:49;7.50;99.90
12421;DHT22;6275;43.688;1.408;2024-02-26T00:34:16;7.50;99.90
12421;DHT22;6275;43.688;1.408;2024-02-26T00:36:43;7.60;99.90
12421;DHT22;6275;43.688;1.408;2024-02-26T00:39:11;7.60;99.90
12421;DHT22;6275;43.688;1.408;2024-02-26T00:41:42;7.50;99.90
12421;DHT22;6275;43.688;1.408;2024-02-26T00:44:09;7.60;99.90
12421;DHT22;6275;43.688;1.408;2024-02-26T00:46:36;7.60;99.90
12421;DHT22;6275;43.688;1.408;2024-02-26T00:49:04;7.60;99.90
12421;DHT22;6275;43.688;1.408;2024-02-26T00:51:31;7.60;99.90
12421;DHT22;6275;43.688;1.408;2024-02-26T00:53:58;7.60;99.90
12421;DHT22;6275;43.688;1.408;2024-02-26T00:56:25;7.60;99.90
12421;DHT22;6275;43.688;1.408;2024-02-26T00:58:52;7.60;99.90
12421;DHT22;6275;43.688;1.408;2024-02-26T01:01:19;7.60;99.90
12421;DHT22;6275;43.688;1.408;2024-02-26T01:03:46;7.60;99.90
12421;DHT22;6275;43.688;1.408;2024-02-26T01:06:14;7.70;99.90
12421;DHT22;6275;43.688;1.408;2024-02-26T01:08:41;7.60;99.90
12421;DHT22;6275;43.688;1.408;2024-02-26T01:11:08;7.60;99.90
12421;DHT22;6275;43.688;1.408;2024-02-26T01:16:03;7.70;99.90
12421;DHT22;6275;43.688;1.408;2024-02-26T01:18:30;7.70;99.90
12421;DHT22;6275;43.688;1.408;2024-02-26T01:20:57;7.70;99.90
12421;DHT22;6275;43.688;1.408;2024-02-26T01:23:24;7.70;99.90
12421;DHT22;6275;43.688;1.408;2024-02-26T01:25:51;7.70;99.90
12421;DHT22;6275;43.688;1.408;2024-02-26T01:28:18;7.70;99.90
12421;DHT22;6275;43.688;1.408;2024-02-26T01:30:45;7.70;99.90
12421;DHT22;6275;43.688;1.408;2024-02-26T01:33:12;7.70;99.90
12421;DHT22;6275;43.688;1.408;2024-02-26T01:35:40;7.70;99.90
12421;DHT22;6275;43.688;1.408;2024-02-26T01:38:07;7.70;99.90
12421;DHT22;6275;43.688;1.408;2024-02-26T01:40:34;7.70;99.90
12421;DHT22;6275;43.688;1.408;2024-02-26T01:43:02;7.70;99.90
12421;DHT22;6275;43.688;1.408;2024-02-26T01:45:29;7.70;99.90
12421;DHT22;6275;43.688;1.408;2024-02-26T01:47:56;7.70;99.90
12421;DHT22;6275;43.688;1.408;2024-02-26T01:50:24;7.70;99.90
12421;DHT22;6275;43.688;1.408;2024-02-26T01:52:53;7.70;99.90
12421;DHT22;6275;43.688;1.408;2024-02-26T01:55:22;7.70;99.90
12421;DHT22;6275;43.688;1.408;2024-02-26T01:57:51;7.70;99.90
12421;DHT22;6275;43.688;1.408;2024-02-26T02:00:20;7.70;99.90
12421;DHT22;6275;43.688;1.408;2024-02-26T02:02:49;7.70;99.90
12421;DHT22;6275;43.688;1.408;2024-02-26T02:05:17;7.70;99.90
12421;DHT22;6275;43.688;1.408;2024-02-26T02:07:45;7.70;99.90
12421;DHT22;6275;43.688;1.408;2024-02-26T02:12:40;7.80;99.90
12421;DHT22;6275;43.688;1.408;2024-02-26T02:15:07;7.70;99.90
12421;DHT22;6275;43.688;1.408;2024-02-26T02:17:35;7.70;99.90
12421;DHT22;6275;43.688;1.408;2024-02-26T02:20:02;7.80;99.90
12421;DHT22;6275;43.688;1.408;2024-02-26T02:22:30;7.80;99.90
12421;DHT22;6275;43.688;1.408;2024-02-26T02:24:59;7.70;99.90
12421;DHT22;6275;43.688;1.408;2024-02-26T02:27:28;7.70;99.90
12421;DHT22;6275;43.688;1.408;2024-02-26T02:29:55;7.70;99.90
12421;DHT22;6275;43.688;1.408;2024-02-26T02:32:24;7.70;99.90
12421;DHT22;6275;43.688;1.408;2024-02-26T02:34:52;7.70;99.90
12421;DHT22;6275;43.688;1.408;2024-02-26T02:37:19;7.70;99.90
12421;DHT22;6275;43.688;1.408;2024-02-26T02:39:46;7.70;99.90
12421;DHT22;6275;43.688;1.408;2024-02-26T02:42:13;7.70;99.90
12421;DHT22;6275;43.688;1.408;2024-02-26T02:44:40;7.70;99.90
12421;DHT22;6275;43.688;1.408;2024-02-26T02:47:07;7.70;99.90
12421;DHT22;6275;43.688;1.408;2024-02-26T02:49:34;7.70;99.90
12421;DHT22;6275;43.688;1.408;2024-02-26T02:52:02;7.70;99.90
12421;DHT22;6275;43.688;1.408;2024-02-26T02:54:29;7.70;99.90
12421;DHT22;6275;43.688;1.408;2024-02-26T02:56:56;7.80;99.90
12421;DHT22;6275;43.688;1.408;2024-02-26T02:59:23;7.80;99.90
12421;DHT22;6275;43.688;1.408;2024-02-26T03:01:50;7.70;99.90
12421;DHT22;6275;43.688;1.408;2024-02-26T03:04:17;7.80;99.90
12421;DHT22;6275;43.688;1.408;2024-02-26T03:06:44;7.80;99.90
12421;DHT22;6275;43.688;1.408;2024-02-26T03:09:12;7.80;99.90
12421;DHT22;6275;43.688;1.408;2024-02-26T03:11:39;7.80;99.90
12421;DHT22;6275;43.688;1.408;2024-02-26T03:14:07;7.80;99.90
12421;DHT22;6275;43.688;1.408;2024-02-26T03:16:34;7.80;99.90
12421;DHT22;6275;43.688;1.408;2024-02-26T03:19:01;7.80;99.90
12421;DHT22;6275;43.688;1.408;2024-02-26T03:21:28;7.80;99.90
12421;DHT22;6275;43.688;1.408;2024-02-26T03:23:55;7.80;99.90
12421;DHT22;6275;43.688;1.408;2024-02-26T03:26:22;7.80;99.90
12421;DHT22;6275;43.688;1.408;2024-02-26T03:28:50;7.90;99.90
12421;DHT22;6275;43.688;1.408;2024-02-26T03:31:17;8.00;99.90
12421;DHT22;6275;43.688;1.408;2024-02-26T03:33:43;7.90;99.90
12421;DHT22;6275;43.688;1.408;2024-02-26T03:36:11;7.90;99.90
12421;DHT22;6275;43.688;1.408;2024-02-26T03:38:38;8.00;99.90
12421;DHT22;6275;43.688;1.408;2024-02-26T03:41:05;8.00;99.90
12421;DHT22;6275;43.688;1.408;2024-02-26T03:43:32;8.00;99.90
12421;DHT22;6275;43.688;1.408;2024-02-26T03:45:59;8.10;99.90
12421;DHT22;6275;43.688;1.408;2024-02-26T03:48:26;8.10;99.90
12421;DHT22;6275;43.688;1.408;2024-02-26T03:50:54;8.10;99.90
12421;DHT22;6275;43.688;1.408;2024-02-26T03:53:21;8.10;99.90
12421;DHT22;6275;43.688;1.408;2024-02-26T03:55:48;8.10;99.90
12421;DHT22;6275;43.688;1.408;2024-02-26T03:58:15;8.10;99.90
12421;DHT22;6275;43.688;1.408;2024-02-26T04:00:42;8.50;99.90
12421;DHT22;6275;43.688;1.408;2024-02-26T04:03:10;8.50;99.90
12421;DHT22;6275;43.688;1.408;2024-02-26T04:05:37;8.60;99.90
12421;DHT22;6275;43.688;1.408;2024-02-26T04:08:05;8.70;99.90
12421;DHT22;6275;43.688;1.408;2024-02-26T04:10:34;8.80;99.90
12421;DHT22;6275;43.688;1.408;2024-02-26T04:13:07;8.70;99.90
12421;DHT22;6275;43.688;1.408;2024-02-26T04:15:35;8.80;99.90
12421;DHT22;6275;43.688;1.408;2024-02-26T04:18:02;9.00;99.90
12421;DHT22;6275;43.688;1.408;2024-02-26T04:20:30;9.00;99.90
12421;DHT22;6275;43.688;1.408;2024-02-26T04:22:57;9.00;99.90
12421;DHT22;6275;43.688;1.408;2024-02-26T04:25:24;9.10;99.90
12421;DHT22;6275;43.688;1.408;2024-02-26T04:27:51;9.20;99.90
12421;DHT22;6275;43.688;1.408;2024-02-26T04:30:17;9.20;99.90
12421;DHT22;6275;43.688;1.408;2024-02-26T04:32:45;9.30;99.90
12421;DHT22;6275;43.688;1.408;2024-02-26T04:35:12;9.40;99.90
12421;DHT22;6275;43.688;1.408;2024-02-26T04:37:39;9.50;99.90
12421;DHT22;6275;43.688;1.408;2024-02-26T04:40:06;9.50;99.90
12421;DHT22;6275;43.688;1.408;2024-02-26T04:42:34;9.70;99.90
12421;DHT22;6275;43.688;1.408;2024-02-26T04:45:01;9.70;99.90
12421;DHT22;6275;43.688;1.408;2024-02-26T04:47:29;9.70;99.90
12421;DHT22;6275;43.688;1.408;2024-02-26T04:49:56;9.70;99.90
12421;DHT22;6275;43.688;1.408;2024-02-26T04:52:24;9.70;99.90
12421;DHT22;6275;43.688;1.408;2024-02-26T04:54:51;9.70;99.90
12421;DHT22;6275;43.688;1.408;2024-02-26T04:57:18;9.70;99.90
12421;DHT22;6275;43.688;1.408;2024-02-26T04:59:45;9.70;99.90
12421;DHT22;6275;43.688;1.408;2024-02-26T05:02:13;9.60;99.90
12421;DHT22;6275;43.688;1.408;2024-02-26T05:04:40;9.70;99.90
12421;DHT22;6275;43.688;1.408;2024-02-26T05:07:07;9.60;99.90
12421;DHT22;6275;43.688;1.408;2024-02-26T05:09:34;9.60;99.90
12421;DHT22;6275;43.688;1.408;2024-02-26T05:12:02;9.70;99.90
12421;DHT22;6275;43.688;1.408;2024-02-26T05:14:29;9.60;99.90
12421;DHT22;6275;43.688;1.408;2024-02-26T05:16:56;9.70;99.90
12421;DHT22;6275;43.688;1.408;2024-02-26T05:19:22;9.70;99.90
12421;DHT22;6275;43.688;1.408;2024-02-26T05:21:50;9.60;99.90
12421;DHT22;6275;43.688;1.408;2024-02-26T05:24:17;9.60;99.90
12421;DHT22;6275;43.688;1.408;2024-02-26T05:26:45;9.50;99.90
12421;DHT22;6275;43.688;1.408;2024-02-26T05:29:12;9.60;99.90
12421;DHT22;6275;43.688;1.408;2024-02-26T05:31:42;9.50;99.90
12421;DHT22;6275;43.688;1.408;2024-02-26T05:34:09;9.40;99.90
12421;DHT22;6275;43.688;1.408;2024-02-26T05:36:36;9.40;99.90
12421;DHT22;6275;43.688;1.408;2024-02-26T05:39:03;9.40;99.90
12421;DHT22;6275;43.688;1.408;2024-02-26T05:41:30;9.50;99.90
12421;DHT22;6275;43.688;1.408;2024-02-26T05:43:58;9.50;99.90
12421;DHT22;6275;43.688;1.408;2024-02-26T05:46:26;9.50;99.90
12421;DHT22;6275;43.688;1.408;2024-02-26T05:48:54;9.40;99.90
12421;DHT22;6275;43.688;1.408;2024-02-26T05:51:21;9.40;99.90
12421;DHT22;6275;43.688;1.408;2024-02-26T05:53:48;9.40;99.90
12421;DHT22;6275;43.688;1.408;2024-02-26T05:56:24;9.50;99.90
12421;DHT22;6275;43.688;1.408;2024-02-26T05:58:51;9.50;99.90
12421;DHT22;6275;43.688;1.408;2024-02-26T06:01:20;9.50;99.90
12421;DHT22;6275;43.688;1.408;2024-02-26T06:03:48;9.50;99.90
12421;DHT22;6275;43.688;1.408;2024-02-26T06:06:15;9.40;99.90
12421;DHT22;6275;43.688;1.408;2024-02-26T06:08:43;9.40;99.90
12421;DHT22;6275;43.688;1.408;2024-02-26T06:11:10;9.40;99.90
12421;DHT22;6275;43.688;1.408;2024-02-26T06:13:37;9.50;99.90
12421;DHT22;6275;43.688;1.408;2024-02-26T06:16:04;9.50;99.90
12421;DHT22;6275;43.688;1.408;2024-02-26T06:18:31;9.50;99.90
12421;DHT22;6275;43.688;1.408;2024-02-26T06:20:59;9.50;99.90
12421;DHT22;6275;43.688;1.408;2024-02-26T06:23:26;9.50;99.90
12421;DHT22;6275;43.688;1.408;2024-02-26T06:25:53;9.60;99.90
12421;DHT22;6275;43.688;1.408;2024-02-26T06:28:20;9.50;99.90
12421;DHT22;6275;43.688;1.408;2024-02-26T06:30:47;9.40;99.90
12421;DHT22;6275;43.688;1.408;2024-02-26T06:33:14;9.50;99.90
12421;DHT22;6275;43.688;1.408;2024-02-26T06:35:42;9.40;99.90
12421;DHT22;6275;43.688;1.408;2024-02-26T06:38:09;9.30;99.90
12421;DHT22;6275;43.688;1.408;2024-02-26T06:40:38;9.30;99.90
12421;DHT22;6275;43.688;1.408;2024-02-26T06:43:05;9.40;99.90
12421;DHT22;6275;43.688;1.408;2024-02-26T06:45:32;9.50;99.90
12421;DHT22;6275;43.688;1.408;2024-02-26T06:47:59;9.50;99.90
12421;DHT22;6275;43.688;1.408;2024-02-26T06:50:27;9.50;99.90
12421;DHT22;6275;43.688;1.408;2024-02-26T06:52:54;9.40;99.90
12421;DHT22;6275;43.688;1.408;2024-02-26T06:55:21;9.40;99.90
12421;DHT22;6275;43.688;1.408;2024-02-26T06:57:48;9.50;99.90
12421;DHT22;6275;43.688;1.408;2024-02-26T07:00:15;9.50;99.90
12421;DHT22;6275;43.688;1.408;2024-02-26T07:02:43;9.60;99.90
12421;DHT22;6275;43.688;1.408;2024-02-26T07:05:10;9.70;99.90
12421;DHT22;6275;43.688;1.408;2024-02-26T07:07:38;9.70;99.90
12421;DHT22;6275;43.688;1.408;2024-02-26T07:10:05;9.60;99.90
12421;DHT22;6275;43.688;1.408;2024-02-26T07:12:33;9.60;99.90
12421;DHT22;6275;43.688;1.408;2024-02-26T07:15:00;9.50;99.90
12421;DHT22;6275;43.688;1.408;2024-02-26T07:17:28;9.60;99.90
12421;DHT22;6275;43.688;1.408;2024-02-26T07:19:55;9.60;99.90
12421;DHT22;6275;43.688;1.408;2024-02-26T07:22:23;9.60;99.90
12421;DHT22;6275;43.688;1.408;2024-02-26T07:24:51;9.70;99.90
12421;DHT22;6275;43.688;1.408;2024-02-26T07:27:18;9.90;99.90
12421;DHT22;6275;43.688;1.408;2024-02-26T07:29:46;10.10;99.90
12421;DHT22;6275;43.688;1.408;2024-02-26T07:32:13;10.30;99.90
12421;DHT22;6275;43.688;1.408;2024-02-26T07:34:41;10.30;99.90
12421;DHT22;6275;43.688;1.408;2024-02-26T07:37:12;10.30;99.90
12421;DHT22;6275;43.688;1.408;2024-02-26T07:39:39;10.50;99.90
12421;DHT22;6275;43.688;1.408;2024-02-26T07:42:06;10.50;99.90
12421;DHT22;6275;43.688;1.408;2024-02-26T07:44:33;10.50;99.90
12421;DHT22;6275;43.688;1.408;2024-02-26T07:47:01;10.50;99.90
12421;DHT22;6275;43.688;1.408;2024-02-26T07:49:28;10.50;99.90
12421;DHT22;6275;43.688;1.408;2024-02-26T07:51:55;10.50;99.90
12421;DHT22;6275;43.688;1.408;2024-02-26T07:54:24;10.60;99.90
12421;DHT22;6275;43.688;1.408;2024-02-26T07:56:51;10.50;99.90
12421;DHT22;6275;43.688;1.408;2024-02-26T07:59:19;10.50;99.90
12421;DHT22;6275;43.688;1.408;2024-02-26T08:01:50;10.40;99.90
12421;DHT22;6275;43.688;1.408;2024-02-26T08:04:24;10.40;99.90
12421;DHT22;6275;43.688;1.408;2024-02-26T08:06:52;10.30;99.90
12421;DHT22;6275;43.688;1.408;2024-02-26T08:09:19;10.30;99.90
12421;DHT22;6275;43.688;1.408;2024-02-26T08:11:46;10.40;99.90
12421;DHT22;6275;43.688;1.408;2024-02-26T08:14:13;10.40;99.90
12421;DHT22;6275;43.688;1.408;2024-02-26T08:16:40;10.50;99.90
12421;DHT22;6275;43.688;1.408;2024-02-26T08:19:07;10.70;99.90
12421;DHT22;6275;43.688;1.408;2024-02-26T08:21:37;10.90;99.90
12421;DHT22;6275;43.688;1.408;2024-02-26T08:24:04;11.10;99.90
12421;DHT22;6275;43.688;1.408;2024-02-26T08:26:31;11.00;99.90
12421;DHT22;6275;43.688;1.408;2024-02-26T08:28:59;11.00;99.90
12421;DHT22;6275;43.688;1.408;2024-02-26T08:31:25;11.00;99.90
12421;DHT22;6275;43.688;1.408;2024-02-26T08:33:53;11.00;99.90
12421;DHT22;6275;43.688;1.408;2024-02-26T08:36:21;10.90;99.90
12421;DHT22;6275;43.688;1.408;2024-02-26T08:38:48;10.80;99.90
12421;DHT22;6275;43.688;1.408;2024-02-26T08:41:15;10.90;99.90
12421;DHT22;6275;43.688;1.408;2024-02-26T08:43:42;11.00;99.90
12421;DHT22;6275;43.688;1.408;2024-02-26T08:46:09;11.10;99.90
12421;DHT22;6275;43.688;1.408;2024-02-26T08:48:37;11.20;99.90
12421;DHT22;6275;43.688;1.408;2024-02-26T08:51:08;11.30;99.90
12421;DHT22;6275;43.688;1.408;2024-02-26T08:53:36;11.50;99.90
12421;DHT22;6275;43.688;1.408;2024-02-26T08:56:09;11.40;99.90
12421;DHT22;6275;43.688;1.408;2024-02-26T08:58:38;11.50;99.90
